Time;durP1;ratioP1;P1;durP2;ratioP2;P2;SDS_P1;SDS_P2;PMS_P1;PMS_P2;Temp;Humidity;BMP_temperature;BMP_pressure;BME280_temperature;BME280_humidity;BME280_pressure;Samples;Min_cycle;Max_cycle;Signal;HPM_P1;HPM_P2
2021/04/08 00:00:11;;;;;;;7.53;3.50;;;;;;;-0.27;97.47;96417.88;1048425;28;20469;-70
2021/04/08 00:00:41;;;;;;;7.60;2.97;;;;;;;-0.28;96.86;96418.06;1040350;28;20418;-70
2021/04/08 00:01:13;;;;;;;8.40;3.37;;;;;;;-0.27;96.48;96423.13;1040298;28;20073;-69
2021/04/08 00:01:43;;;;;;;8.27;3.10;;;;;;;-0.32;97.39;96420.25;1036297;28;20125;-70
2021/04/08 00:02:14;;;;;;;8.03;3.10;;;;;;;-0.29;96.97;96419.09;1040423;28;20052;-71
2021/04/08 00:02:44;;;;;;;8.97;3.20;;;;;;;-0.32;97.40;96422.91;1040227;28;20033;-71
2021/04/08 00:03:15;;;;;;;7.43;3.27;;;;;;;-0.29;97.58;96422.53;1040124;28;20553;-70
2021/04/08 00:03:45;;;;;;;8.97;3.10;;;;;;;-0.25;97.73;96417.72;1041722;28;20470;-71
2021/04/08 00:04:16;;;;;;;9.63;3.90;;;;;;;-0.24;97.98;96421.16;1044574;28;20037;-69
2021/04/08 00:04:46;;;;;;;8.87;3.67;;;;;;;-0.28;97.44;96415.44;1048492;28;20509;-70
2021/04/08 00:05:16;;;;;;;12.27;3.90;;;;;;;-0.33;97.62;96421.28;1048340;28;20013;-70
2021/04/08 00:05:47;;;;;;;7.30;3.57;;;;;;;-0.33;97.62;96418.66;1048466;28;20028;-70
2021/04/08 00:06:17;;;;;;;8.90;3.70;;;;;;;-0.30;97.72;96423.53;1048173;28;20017;-70
2021/04/08 00:06:48;;;;;;;9.53;3.63;;;;;;;-0.27;97.75;96430.19;1044616;28;20029;-70
2021/04/08 00:07:18;;;;;;;11.40;3.10;;;;;;;-0.26;97.67;96423.94;1044478;28;20072;-70
2021/04/08 00:07:49;;;;;;;8.93;3.47;;;;;;;-0.26;97.26;96426.56;1044521;28;20404;-70
2021/04/08 00:08:19;;;;;;;9.87;3.43;;;;;;;-0.23;97.17;96433.28;1045159;28;20024;-70
2021/04/08 00:08:49;;;;;;;6.27;3.27;;;;;;;-0.21;96.82;96434.69;1048642;28;20027;-70
2021/04/08 00:09:20;;;;;;;9.57;3.67;;;;;;;-0.22;97.01;96421.75;1048303;28;20070;-70
2021/04/08 00:09:50;;;;;;;8.17;3.47;;;;;;;-0.22;97.31;96425.19;1048587;28;20069;-70
2021/04/08 00:10:21;;;;;;;9.47;4.00;;;;;;;-0.25;97.54;96424.78;1047671;28;20016;-70
2021/04/08 00:10:51;;;;;;;9.93;3.60;;;;;;;-0.24;97.38;96426.41;1044667;28;20021;-70
2021/04/08 00:11:21;;;;;;;8.83;3.60;;;;;;;-0.25;96.57;96422.16;1044581;28;20466;-70
2021/04/08 00:11:55;;;;;;;5.77;3.13;;;;;;;-0.29;97.35;96424.34;1044245;28;20017;-70
2021/04/08 00:12:26;;;;;;;6.93;3.20;;;;;;;-0.29;96.78;96433.03;1043283;28;20022;-70
2021/04/08 00:12:56;;;;;;;9.50;3.47;;;;;;;-0.29;96.81;96429.59;1048390;28;20025;-70
2021/04/08 00:13:26;;;;;;;7.73;3.30;;;;;;;-0.28;97.34;96429.41;1048438;28;20362;-70
2021/04/08 00:13:57;;;;;;;9.27;3.20;;;;;;;-0.30;96.60;96425.34;1048382;28;20017;-70
2021/04/08 00:14:27;;;;;;;7.53;3.17;;;;;;;-0.30;96.98;96434.03;1048487;28;20462;-70
2021/04/08 00:14:58;;;;;;;8.17;3.30;;;;;;;-0.27;96.82;96428.38;1048467;28;20024;-70
2021/04/08 00:15:28;;;;;;;6.83;3.30;;;;;;;-0.25;97.56;96438.72;1048264;28;20035;-70
2021/04/08 00:15:59;;;;;;;7.60;3.43;;;;;;;-0.23;97.04;96433.28;1048734;28;20118;-70
2021/04/08 00:16:29;;;;;;;8.40;3.27;;;;;;;-0.20;97.51;96438.97;1048619;28;20048;-70
2021/04/08 00:17:00;;;;;;;8.00;3.83;;;;;;;-0.17;97.37;96435.13;1048713;28;20082;-70
2021/04/08 00:17:30;;;;;;;7.47;3.20;;;;;;;-0.17;97.26;96440.38;1048731;28;20074;-70
2021/04/08 00:18:00;;;;;;;7.37;3.60;;;;;;;-0.17;97.36;96441.19;1048625;28;20082;-70
2021/04/08 00:18:31;;;;;;;7.97;3.00;;;;;;;-0.18;97.29;96438.75;1048768;28;20025;-70
2021/04/08 00:19:05;;;;;;;7.17;3.20;;;;;;;-0.11;97.46;96439.59;1044316;28;20099;-71
2021/04/08 00:19:35;;;;;;;8.88;3.55;;;;;;;-0.14;97.20;96440.00;1043699;28;20029;-71
2021/04/08 00:20:10;;;;;;;7.00;3.20;;;;;;;-0.11;97.47;96443.03;1044186;28;20032;-70
2021/04/08 00:20:40;;;;;;;8.07;3.50;;;;;;;-0.15;97.25;96439.19;1044342;28;20017;-71
2021/04/08 00:21:11;;;;;;;6.57;3.30;;;;;;;-0.15;96.84;96441.81;1044679;28;20025;-70
2021/04/08 00:21:41;;;;;;;8.33;3.50;;;;;;;-0.12;96.59;96444.06;1044605;28;20017;-70
2021/04/08 00:22:12;;;;;;;7.10;3.10;;;;;;;-0.10;96.60;96434.19;1044350;28;20021;-71
2021/04/08 00:22:42;;;;;;;7.70;3.13;;;;;;;-0.14;97.44;96440.81;1044651;28;20027;-70
2021/04/08 00:23:12;;;;;;;9.03;3.87;;;;;;;-0.14;97.49;96443.44;1047996;28;20024;-70
2021/04/08 00:23:43;;;;;;;8.47;3.33;;;;;;;-0.16;97.89;96445.44;1048065;28;20029;-71
2021/04/08 00:24:13;;;;;;;10.37;3.87;;;;;;;-0.14;98.68;96440.81;1044172;28;20025;-70
2021/04/08 00:24:44;;;;;;;7.53;3.67;;;;;;;-0.17;98.37;96440.38;1044270;28;20414;-70
2021/04/08 00:25:14;;;;;;;7.57;3.70;;;;;;;-0.17;98.32;96441.19;1044358;28;20047;-70
2021/04/08 00:25:45;;;;;;;6.80;3.60;;;;;;;-0.16;98.62;96452.50;1048313;28;20536;-70
2021/04/08 00:26:15;;;;;;;10.17;3.53;;;;;;;-0.22;99.01;96442.78;1048719;28;20045;-71
2021/04/08 00:26:46;;;;;;;9.20;4.30;;;;;;;-0.22;99.73;96437.50;1048595;28;20027;-70
2021/04/08 00:27:16;;;;;;;7.13;3.83;;;;;;;-0.27;99.40;96438.88;1048727;28;20427;-69
2021/04/08 00:27:47;;;;;;;6.93;3.90;;;;;;;-0.28;99.99;96445.16;1048636;28;20020;-70
2021/04/08 00:28:17;;;;;;;8.57;4.00;;;;;;;-0.25;99.96;96441.34;1048701;28;20258;-70
2021/04/08 00:28:48;;;;;;;8.03;3.80;;;;;;;-0.25;100.00;96437.91;1048685;28;20472;-70
2021/04/08 00:29:18;;;;;;;8.90;3.80;;;;;;;-0.32;99.65;96446.53;1048724;28;20450;-70
2021/04/08 00:29:48;;;;;;;8.40;4.40;;;;;;;-0.35;99.66;96441.69;1048599;28;20346;-69
2021/04/08 00:30:19;;;;;;;11.67;4.23;;;;;;;-0.35;100.00;96438.25;1048708;28;20413;-70
2021/04/08 00:30:50;;;;;;;10.05;4.32;;;;;;;-0.36;100.00;96444.47;1048669;28;20028;-70
2021/04/08 00:31:20;;;;;;;11.70;3.80;;;;;;;-0.34;100.00;96439.84;1048737;28;20059;-70
2021/04/08 00:31:51;;;;;;;8.30;3.63;;;;;;;-0.30;100.00;96438.47;1048314;28;20017;-68
2021/04/08 00:32:21;;;;;;;12.17;4.47;;;;;;;-0.33;100.00;96449.34;1048428;28;20019;-69
2021/04/08 00:32:52;;;;;;;10.23;3.87;;;;;;;-0.31;100.00;96436.84;1048436;28;20564;-69
2021/04/08 00:33:22;;;;;;;8.67;3.70;;;;;;;-0.30;99.63;96443.75;1048384;28;20420;-69
2021/04/08 00:33:52;;;;;;;6.77;3.60;;;;;;;-0.33;98.75;96442.28;1046342;28;20473;-69
2021/04/08 00:34:23;;;;;;;8.70;3.43;;;;;;;-0.32;98.67;96440.47;1044519;28;20038;-69
2021/04/08 00:34:53;;;;;;;7.67;3.63;;;;;;;-0.32;98.55;96443.09;1044573;28;20112;-69
2021/04/08 00:35:24;;;;;;;8.97;3.73;;;;;;;-0.31;99.19;96435.03;1044524;28;20017;-70
2021/04/08 00:35:54;;;;;;;7.00;3.40;;;;;;;-0.32;98.88;96436.03;1044502;28;20012;-70
2021/04/08 00:36:25;;;;;;;8.70;3.90;;;;;;;-0.32;99.08;96443.91;1044534;28;20420;-69
2021/04/08 00:36:55;;;;;;;9.13;3.93;;;;;;;-0.29;98.95;96434.84;1044607;28;20020;-70
2021/04/08 00:37:25;;;;;;;7.77;3.70;;;;;;;-0.29;99.18;96437.47;1044180;28;20025;-70
2021/04/08 00:37:56;;;;;;;8.37;3.70;;;;;;;-0.29;99.56;96440.09;1040083;28;20030;-69
2021/04/08 00:38:26;;;;;;;8.00;3.80;;;;;;;-0.31;99.20;96439.47;1040078;28;20025;-69
2021/04/08 00:38:57;;;;;;;9.47;3.97;;;;;;;-0.29;99.54;96443.53;1040109;28;20359;-68
2021/04/08 00:39:27;;;;;;;8.03;3.83;;;;;;;-0.32;99.35;96440.47;1044285;28;20025;-68
2021/04/08 00:39:57;;;;;;;9.93;4.00;;;;;;;-0.35;99.94;96438.25;1044582;28;20110;-69
2021/04/08 00:40:28;;;;;;;7.87;3.53;;;;;;;-0.32;99.97;96443.09;1044512;28;20086;-70
2021/04/08 00:40:59;;;;;;;10.57;3.83;;;;;;;-0.29;99.99;96438.28;1047938;28;20542;-70
2021/04/08 00:41:29;;;;;;;6.90;3.53;;;;;;;-0.28;99.63;96437.28;1044195;28;20017;-69
2021/04/08 00:42:00;;;;;;;10.37;4.13;;;;;;;-0.29;99.88;96432.22;1040103;28;20100;-69
2021/04/08 00:42:30;;;;;;;7.17;4.00;;;;;;;-0.29;100.00;96429.59;1039930;28;20510;-69
2021/04/08 00:43:01;;;;;;;11.67;4.00;;;;;;;-0.27;99.65;96441.53;1040110;28;20017;-69
2021/04/08 00:43:31;;;;;;;7.77;3.70;;;;;;;-0.23;99.23;96441.16;1048346;28;20017;-69
2021/04/08 00:44:02;;;;;;;9.50;4.10;;;;;;;-0.27;99.60;96438.09;1045024;28;20029;-69
2021/04/08 00:44:33;;;;;;;8.90;3.80;;;;;;;-0.31;99.53;96437.66;1044149;28;20097;-69
2021/04/08 00:45:04;;;;;;;7.80;4.03;;;;;;;-0.28;99.81;96437.28;1043739;28;20486;-70
2021/04/08 00:45:35;;;;;;;9.32;4.00;;;;;;;-0.24;99.96;96439.53;1039435;28;20099;-69
2021/04/08 00:46:05;;;;;;;7.23;3.80;;;;;;;-0.22;99.81;96437.50;1039713;28;20452;-69
2021/04/08 00:46:36;;;;;;;7.40;4.27;;;;;;;-0.24;99.57;96429.84;1043590;28;20039;-70
2021/04/08 00:47:06;;;;;;;9.63;4.20;;;;;;;-0.24;99.48;96435.09;1039781;28;20104;-70
2021/04/08 00:47:37;;;;;;;10.37;3.90;;;;;;;-0.21;99.91;96434.69;1043956;28;20087;-70
2021/04/08 00:48:07;;;;;;;12.17;4.70;;;;;;;-0.17;99.29;96435.94;1044083;28;20013;-70
2021/04/08 00:48:38;;;;;;;9.40;4.00;;;;;;;-0.14;99.87;96440.81;1044147;28;20036;-70
2021/04/08 00:49:09;;;;;;;8.38;3.65;;;;;;;-0.22;99.29;96430.44;1044302;28;20151;-68
2021/04/08 00:49:39;;;;;;;9.80;3.90;;;;;;;-0.19;99.46;96437.94;1044617;28;20524;-69
2021/04/08 00:50:10;;;;;;;8.00;3.77;;;;;;;-0.18;100.00;96436.94;1044482;28;20029;-69
2021/04/08 00:50:40;;;;;;;8.43;3.80;;;;;;;-0.19;99.76;96431.88;1044396;28;20027;-68
2021/04/08 00:51:11;;;;;;;8.27;3.73;;;;;;;-0.21;99.02;96436.50;1044496;28;20024;-68
2021/04/08 00:51:41;;;;;;;7.67;3.73;;;;;;;-0.20;99.13;96433.72;1044518;28;20021;-68
2021/04/08 00:52:12;;;;;;;9.43;4.53;;;;;;;-0.18;99.67;96438.75;1044059;28;20112;-69
2021/04/08 00:52:42;;;;;;;8.40;3.90;;;;;;;-0.17;99.54;96435.13;1039966;28;20028;-68
2021/04/08 00:53:14;;;;;;;8.63;3.77;;;;;;;-0.15;98.84;96439.19;1031796;28;20014;-69
2021/04/08 00:53:44;;;;;;;5.78;3.65;;;;;;;-0.13;99.48;96437.19;1028203;28;20145;-69
2021/04/08 00:54:15;;;;;;;7.07;3.67;;;;;;;-0.14;98.90;96430.31;1028101;28;20019;-69
2021/04/08 00:54:46;;;;;;;10.45;4.10;;;;;;;-0.14;98.68;96443.44;1028468;28;20026;-68
2021/04/08 00:55:18;;;;;;;8.13;4.00;;;;;;;-0.12;99.42;96435.38;1032043;28;20101;-68
2021/04/08 00:55:51;;;;;;;9.93;3.90;;;;;;;-0.17;99.15;96435.13;1032260;28;20073;-68
2021/04/08 00:56:31;;;;;;;7.32;3.40;;;;;;;-0.12;99.47;96440.63;1036655;28;20018;-68
2021/04/08 00:57:04;;;;;;;9.05;4.07;;;;;;;-0.13;98.72;96429.31;1038221;28;20026;-68
2021/04/08 00:57:35;;;;;;;9.33;3.90;;;;;;;-0.10;97.92;96447.31;1042088;28;20021;-68
2021/04/08 00:58:05;;;;;;;8.77;4.07;;;;;;;-0.12;98.54;96446.69;1044193;28;20017;-69
2021/04/08 00:58:35;;;;;;;8.97;3.80;;;;;;;-0.14;99.08;96438.19;1046239;28;20555;-69
2021/04/08 00:59:06;;;;;;;9.80;4.17;;;;;;;-0.16;99.27;96444.63;1041283;28;20458;-69
2021/04/08 00:59:36;;;;;;;7.40;3.70;;;;;;;-0.17;99.29;96443.00;1039994;28;20475;-68
2021/04/08 01:00:07;;;;;;;7.60;3.33;;;;;;;-0.16;99.01;96442.00;1036001;28;20506;-68
2021/04/08 01:00:43;;;;;;;10.27;3.78;;;;;;;-0.15;98.68;96444.44;1035917;28;20379;-69
2021/04/08 01:01:13;;;;;;;9.43;3.90;;;;;;;-0.14;98.40;96447.88;1038129;28;20045;-69
2021/04/08 01:01:43;;;;;;;8.07;3.87;;;;;;;-0.18;97.84;96452.72;1040879;28;20030;-68
2021/04/08 01:02:14;;;;;;;8.37;3.77;;;;;;;-0.15;97.87;96441.81;1044082;28;20367;-69
2021/04/08 01:02:44;;;;;;;5.90;3.77;;;;;;;-0.15;97.57;96436.56;1044170;28;20024;-69
2021/04/08 01:03:16;;;;;;;7.00;3.67;;;;;;;-0.19;97.58;96442.41;1039959;28;20450;-70
2021/04/08 01:03:46;;;;;;;7.72;3.50;;;;;;;-0.19;98.17;96437.16;1039909;28;20025;-69
2021/04/08 01:04:17;;;;;;;8.67;3.80;;;;;;;-0.17;98.15;96441.19;1039939;28;20017;-69
2021/04/08 01:04:47;;;;;;;8.50;3.90;;;;;;;-0.16;98.39;96437.56;1035981;28;20022;-69
2021/04/08 01:05:18;;;;;;;8.57;4.00;;;;;;;-0.19;98.88;96445.84;1035854;28;20029;-69
2021/04/08 01:05:48;;;;;;;8.20;3.63;;;;;;;-0.16;99.03;96439.38;1035977;28;20089;-69
2021/04/08 01:06:19;;;;;;;7.30;3.70;;;;;;;-0.17;98.92;96435.94;1039998;28;20366;-69
2021/04/08 01:06:50;;;;;;;7.33;3.60;;;;;;;-0.16;98.59;96447.25;1040004;28;20499;-69
2021/04/08 01:07:20;;;;;;;6.75;3.50;;;;;;;-0.19;98.31;96443.22;1044018;28;20091;-69
2021/04/08 01:07:51;;;;;;;8.60;3.93;;;;;;;-0.17;98.26;96443.81;1044136;28;20094;-70
2021/04/08 01:08:21;;;;;;;6.80;3.47;;;;;;;-0.15;98.81;96443.66;1043939;28;20016;-68
2021/04/08 01:08:52;;;;;;;7.20;3.60;;;;;;;-0.16;98.29;96447.25;1040287;28;20040;-69
2021/04/08 01:09:22;;;;;;;7.23;3.33;;;;;;;-0.17;98.39;96448.25;1039810;28;20030;-69
2021/04/08 01:09:53;;;;;;;8.13;4.23;;;;;;;-0.17;97.82;96441.19;1039969;28;20033;-69
2021/04/08 01:10:23;;;;;;;9.23;3.87;;;;;;;-0.17;97.43;96446.44;1039906;28;20040;-69
2021/04/08 01:10:54;;;;;;;6.57;3.40;;;;;;;-0.17;97.26;96443.81;1039965;28;20037;-70
2021/04/08 01:11:25;;;;;;;7.20;3.87;;;;;;;-0.18;98.28;96449.28;1047511;28;20077;-68
2021/04/08 01:11:55;;;;;;;6.80;4.27;;;;;;;-0.23;98.25;96447.22;1048099;28;20407;-70
2021/04/08 01:12:26;;;;;;;8.97;4.03;;;;;;;-0.24;98.09;96440.34;1048175;28;20140;-70
2021/04/08 01:12:58;;;;;;;7.53;3.57;;;;;;;-0.25;98.42;96440.53;1048138;28;20028;-70
2021/04/08 01:13:29;;;;;;;7.45;4.28;;;;;;;-0.29;98.40;96440.91;1036195;28;20022;-69
2021/04/08 01:13:59;;;;;;;8.27;3.70;;;;;;;-0.28;98.37;96442.53;1039917;28;20041;-67
2021/04/08 01:14:29;;;;;;;8.47;3.53;;;;;;;-0.21;98.62;96447.00;1039683;28;20025;-68
2021/04/08 01:15:01;;;;;;;6.20;3.80;;;;;;;-0.26;98.29;96442.31;1036178;28;20064;-68
2021/04/08 01:15:32;;;;;;;11.55;3.80;;;;;;;-0.22;98.07;96443.56;1039974;28;20025;-69
2021/04/08 01:16:05;;;;;;;8.30;3.60;;;;;;;-0.19;98.23;96445.03;1036170;28;20526;-68
2021/04/08 01:16:47;;;;;;;6.90;3.40;;;;;;;-0.20;97.50;96444.22;1036437;28;20082;-68
2021/04/08 01:17:22;;;;;;;7.43;3.70;;;;;;;-0.20;97.68;96444.22;1035809;28;20030;-69
2021/04/08 01:18:24;;;;;;;8.82;3.92;;;;;;;-0.17;98.44;96445.63;1038509;28;20038;-70
2021/04/08 01:19:12;;;;;;;6.03;3.30;;;;;;;-0.19;97.77;96453.72;1042045;28;20021;-69
2021/04/08 01:20:10;;;;;;;7.78;3.30;;;;;;;-0.20;97.92;96452.09;1039979;28;20021;-69
2021/04/08 01:20:52;;;;;;;8.60;3.08;;;;;;;-0.23;97.51;96446.41;1042038;28;20481;-69
2021/04/08 01:21:53;;;;;;;8.25;3.70;;;;;;;-0.26;97.91;96450.22;1044036;28;20354;-70
2021/04/08 01:22:25;;;;;;;;;;;;;;;-0.25;97.25;96451.03;1032019;28;20038;-69
2021/04/08 01:22:57;;;;;;;9.05;3.90;;;;;;;-0.28;98.08;96450.41;1036159;28;20223;-69
2021/04/08 01:23:33;;;;;;;6.75;3.38;;;;;;;-0.25;98.05;96456.31;1039883;28;20047;-69
2021/04/08 01:24:25;;;;;;;9.35;3.60;;;;;;;-0.22;97.82;96454.09;1041230;28;20029;-69
2021/04/08 01:25:13;;;;;;;6.47;3.58;;;;;;;-0.27;97.98;96459.91;1044346;28;20519;-69
2021/04/08 01:25:48;;;;;;;9.13;3.60;;;;;;;-0.28;98.43;96460.09;1035707;28;20026;-69
2021/04/08 01:26:23;;;;;;;6.57;3.38;;;;;;;-0.24;98.56;96457.91;1031760;28;20041;-68
2021/04/08 01:27:25;;;;;;;9.52;3.28;;;;;;;-0.20;98.94;96462.59;1031766;28;20407;-69
2021/04/08 01:28:01;;;;;;;8.18;3.92;;;;;;;-0.21;98.97;96455.69;1040821;28;20021;-70
2021/04/08 01:28:40;;;;;;;9.98;4.30;;;;;;;-0.24;98.75;96466.59;1043991;28;20017;-70
2021/04/08 01:29:33;;;;;;;7.20;3.95;;;;;;;-0.24;98.63;96457.91;1043885;28;20363;-68
2021/04/08 01:30:34;;;;;;;6.47;3.47;;;;;;;-0.23;99.44;96457.72;1039786;28;20494;-69
2021/04/08 01:31:06;;;;;;;11.43;3.85;;;;;;;-0.26;98.54;96465.97;1039870;28;20088;-69
2021/04/08 01:31:36;;;;;;;8.85;3.70;;;;;;;-0.28;99.45;96460.09;1043451;28;20103;-69
2021/04/08 01:32:07;;;;;;;9.33;3.93;;;;;;;-0.28;99.01;96462.72;1039943;28;20559;-70
2021/04/08 01:32:43;;;;;;;8.90;3.77;;;;;;;-0.27;99.15;96461.72;1039882;28;20018;-69
2021/04/08 01:33:39;;;;;;;11.35;3.88;;;;;;;-0.23;99.08;96468.22;1031769;28;20014;-69
2021/04/08 01:34:13;;;;;;;7.57;3.80;;;;;;;-0.23;99.69;96460.34;1032908;28;20529;-69
2021/04/08 01:34:46;;;;;;;8.52;3.60;;;;;;;-0.24;99.43;96465.81;1031853;28;20015;-68
2021/04/08 01:35:16;;;;;;;6.28;3.55;;;;;;;-0.25;99.58;96465.00;1031798;28;20655;-69
2021/04/08 01:35:47;;;;;;;9.90;4.13;;;;;;;-0.20;99.35;96470.50;1031797;28;20021;-69
2021/04/08 01:36:22;;;;;;;8.05;3.90;;;;;;;-0.20;99.50;96456.53;1031731;28;20262;-68
2021/04/08 01:36:54;;;;;;;9.07;4.05;;;;;;;-0.19;99.52;96466.84;1028471;28;20034;-69
2021/04/08 01:37:34;;;;;;;7.00;3.55;;;;;;;-0.20;98.12;96459.97;1032869;28;20440;-70
2021/04/08 01:38:10;;;;;;;9.93;4.22;;;;;;;-0.19;97.79;96469.47;1029693;28;20382;-69
2021/04/08 01:38:46;;;;;;;9.55;3.65;;;;;;;-0.16;98.07;96463.00;1034036;28;20029;-68
2021/04/08 01:39:16;;;;;;;5.78;3.33;;;;;;;-0.18;97.58;96481.59;1039918;28;20386;-69
2021/04/08 01:39:47;;;;;;;7.77;3.50;;;;;;;-0.18;98.16;96457.16;1041603;28;20017;-69
2021/04/08 01:40:18;;;;;;;9.77;3.80;;;;;;;-0.17;98.24;96474.53;1034449;28;20101;-70
2021/04/08 01:40:48;;;;;;;9.18;3.80;;;;;;;-0.14;98.63;96472.34;1032085;28;20018;-69
2021/04/08 01:41:19;;;;;;;7.03;3.57;;;;;;;-0.14;97.76;96474.16;1031906;28;20464;-69
2021/04/08 01:41:49;;;;;;;8.60;3.53;;;;;;;-0.16;96.67;96476.97;1032134;28;20539;-69
2021/04/08 01:42:20;;;;;;;9.17;3.97;;;;;;;-0.18;96.72;96476.34;1035878;28;20029;-69
2021/04/08 01:42:53;;;;;;;8.32;3.35;;;;;;;-0.17;97.17;96470.09;1035729;28;20018;-69
2021/04/08 01:43:28;;;;;;;8.55;3.38;;;;;;;-0.18;96.96;96465.84;1032198;28;20018;-69
2021/04/08 01:43:59;;;;;;;6.70;3.38;;;;;;;-0.17;96.65;96469.28;1032798;28;20471;-69
2021/04/08 01:44:29;;;;;;;5.90;3.50;;;;;;;-0.14;97.20;96471.53;1031843;28;20053;-69
2021/04/08 01:45:01;;;;;;;6.47;3.47;;;;;;;-0.16;97.86;96476.16;1028492;28;20103;-69
2021/04/08 01:45:32;;;;;;;10.32;3.72;;;;;;;-0.16;97.26;96476.16;1027798;28;20093;-69
2021/04/08 01:46:02;;;;;;;6.77;3.50;;;;;;;-0.14;97.56;96488.09;1028013;28;20500;-69
2021/04/08 01:46:35;;;;;;;7.30;3.73;;;;;;;-0.12;97.70;96483.47;1027849;28;20070;-69
2021/04/08 01:47:06;;;;;;;11.20;4.20;;;;;;;-0.13;98.26;96481.84;1032112;28;20049;-69
2021/04/08 01:47:36;;;;;;;9.57;3.70;;;;;;;-0.14;98.67;96482.03;1031859;28;20011;-69
2021/04/08 01:48:07;;;;;;;8.30;3.90;;;;;;;-0.16;98.43;96479.59;1028488;28;20050;-68
2021/04/08 01:48:37;;;;;;;8.37;3.93;;;;;;;-0.17;98.71;96480.59;1031827;28;20513;-68
2021/04/08 01:49:07;;;;;;;8.40;3.67;;;;;;;-0.21;98.94;96492.47;1027637;28;20026;-69
2021/04/08 01:49:40;;;;;;;8.23;3.40;;;;;;;-0.18;99.00;96484.22;1027905;28;20023;-69
2021/04/08 01:50:11;;;;;;;8.55;3.55;;;;;;;-0.18;98.48;96488.69;1028148;28;20019;-69
2021/04/08 01:50:43;;;;;;;9.20;4.20;;;;;;;-0.22;99.29;96485.59;1027786;28;20026;-69
2021/04/08 01:51:14;;;;;;;9.55;4.20;;;;;;;-0.23;99.18;96493.69;1024912;28;20019;-69
2021/04/08 01:51:45;;;;;;;10.40;4.43;;;;;;;-0.28;99.35;96486.38;1024255;28;20047;-69
2021/04/08 01:52:15;;;;;;;10.60;4.22;;;;;;;-0.30;99.69;96489.19;1028062;28;20015;-69
2021/04/08 01:52:47;;;;;;;8.93;3.80;;;;;;;-0.38;99.37;96491.13;1027898;28;20022;-69
2021/04/08 01:53:18;;;;;;;9.85;4.57;;;;;;;-0.43;100.00;96490.88;1028251;28;20023;-69
2021/04/08 01:53:49;;;;;;;11.20;4.53;;;;;;;-0.44;100.00;96489.28;1031779;28;20372;-69
2021/04/08 01:54:20;;;;;;;8.32;4.72;;;;;;;-0.47;100.00;96489.63;1028155;28;20140;-69
2021/04/08 01:54:51;;;;;;;9.37;4.60;;;;;;;-0.53;100.00;96494.63;1024030;28;20022;-69
2021/04/08 01:55:22;;;;;;;9.15;4.90;;;;;;;-0.55;100.00;96496.66;1023781;29;20495;-69
2021/04/08 01:55:55;;;;;;;11.07;5.70;;;;;;;-0.55;100.00;96490.59;1020045;29;20016;-69
2021/04/08 01:56:29;;;;;;;11.52;5.97;;;;;;;-0.58;100.00;96494.38;1031718;28;20054;-69
2021/04/08 01:57:07;;;;;;;11.40;5.70;;;;;;;-0.67;100.00;96495.50;1029701;28;20090;-69
2021/04/08 01:57:38;;;;;;;12.98;5.63;;;;;;;-0.71;100.00;96501.34;1027558;28;20019;-68
2021/04/08 01:58:08;;;;;;;14.50;6.00;;;;;;;-0.76;100.00;96491.41;1027776;28;20115;-68
2021/04/08 01:58:39;;;;;;;14.77;6.07;;;;;;;-0.77;100.00;96494.19;1027756;28;20486;-68
2021/04/08 01:59:11;;;;;;;19.17;6.47;;;;;;;-0.81;100.00;96501.66;1028253;28;20543;-69
2021/04/08 01:59:43;;;;;;;12.10;6.13;;;;;;;-0.84;100.00;96496.75;1035560;28;20391;-69
2021/04/08 02:00:14;;;;;;;12.07;6.82;;;;;;;-0.86;100.00;96491.69;1036241;28;20054;-68
2021/04/08 02:00:45;;;;;;;14.80;6.82;;;;;;;-0.90;100.00;96492.25;1035705;28;20474;-68
2021/04/08 02:01:18;;;;;;;17.07;7.13;;;;;;;-0.97;100.00;96494.81;1035716;28;20025;-69
2021/04/08 02:01:49;;;;;;;18.85;7.03;;;;;;;-0.99;100.00;96503.84;1032388;28;20475;-69
2021/04/08 02:02:19;;;;;;;16.00;7.50;;;;;;;-0.99;100.00;96496.78;1031705;28;20022;-69
2021/04/08 02:02:53;;;;;;;18.60;8.03;;;;;;;-0.93;100.00;96487.38;1028263;28;20427;-69
2021/04/08 02:03:23;;;;;;;17.55;7.55;;;;;;;-0.92;100.00;96495.06;1032203;28;20037;-68
2021/04/08 02:03:53;;;;;;;15.63;7.17;;;;;;;-0.95;100.00;96505.13;1035763;28;20030;-68
2021/04/08 02:04:24;;;;;;;15.20;7.50;;;;;;;-0.97;100.00;96501.84;1028151;28;20031;-68
2021/04/08 02:04:54;;;;;;;11.17;7.20;;;;;;;-0.98;100.00;96498.41;1027720;28;20093;-68
2021/04/08 02:05:25;;;;;;;19.13;7.27;;;;;;;-1.00;100.00;96492.53;1023874;28;20381;-68
2021/04/08 02:05:56;;;;;;;13.45;7.15;;;;;;;-0.98;100.00;96494.97;1027748;28;20492;-68
2021/04/08 02:06:28;;;;;;;17.73;7.30;;;;;;;-0.94;100.00;96504.09;1027745;28;20038;-68
2021/04/08 02:06:59;;;;;;;13.95;7.53;;;;;;;-0.96;100.00;96500.88;1031750;28;20011;-68
2021/04/08 02:07:29;;;;;;;14.48;8.10;;;;;;;-0.99;100.00;96495.97;1032050;28;20030;-68
2021/04/08 02:07:59;;;;;;;19.40;7.37;;;;;;;-0.99;100.00;96511.72;1036033;28;20041;-69
2021/04/08 02:08:30;;;;;;;10.63;6.53;;;;;;;-0.99;100.00;96502.03;1031787;28;20022;-68
2021/04/08 02:09:00;;;;;;;12.00;7.17;;;;;;;-1.00;100.00;96504.84;1031788;28;20027;-68
2021/04/08 02:09:31;;;;;;;13.73;7.10;;;;;;;-1.00;100.00;96496.97;1031828;28;20122;-68
2021/04/08 02:10:03;;;;;;;12.73;7.30;;;;;;;-0.97;100.00;96499.22;1035800;28;20471;-68
2021/04/08 02:10:34;;;;;;;16.20;7.28;;;;;;;-0.97;100.00;96507.94;1039814;28;20091;-68
2021/04/08 02:11:04;;;;;;;15.50;7.80;;;;;;;-0.94;100.00;96507.53;1039940;28;20078;-68
2021/04/08 02:11:36;;;;;;;17.83;7.30;;;;;;;-0.96;100.00;96506.13;1040153;28;20026;-68
2021/04/08 02:12:08;;;;;;;16.27;7.70;;;;;;;-0.97;100.00;96499.22;1039771;28;20034;-68
2021/04/08 02:12:39;;;;;;;16.05;7.45;;;;;;;-0.96;100.00;96500.88;1031724;28;20115;-68
2021/04/08 02:13:11;;;;;;;17.83;7.95;;;;;;;-0.94;100.00;96501.47;1031784;28;20018;-68
2021/04/08 02:13:43;;;;;;;13.93;7.05;;;;;;;-0.94;100.00;96501.47;1028079;28;20051;-68
2021/04/08 02:14:13;;;;;;;13.23;7.30;;;;;;;-0.94;100.00;96501.47;1029258;28;20027;-68
2021/04/08 02:14:44;;;;;;;14.77;7.73;;;;;;;-0.95;100.00;96499.88;1033596;28;20037;-68
2021/04/08 02:15:17;;;;;;;12.60;7.07;;;;;;;-0.94;100.00;96496.25;1032640;28;20019;-68
2021/04/08 02:15:47;;;;;;;15.82;7.18;;;;;;;-0.94;100.00;96494.44;1036736;28;20017;-69
2021/04/08 02:16:19;;;;;;;12.13;7.80;;;;;;;-0.93;100.00;96498.66;1032793;28;20022;-69
2021/04/08 02:16:50;;;;;;;16.83;7.82;;;;;;;-0.90;100.00;96492.25;1032650;28;20470;-68
2021/04/08 02:17:20;;;;;;;15.67;8.07;;;;;;;-0.96;100.00;96498.25;1031928;28;20023;-68
2021/04/08 02:18:00;;;;;;;12.10;6.43;;;;;;;-0.93;100.00;96503.09;1028700;28;20023;-69
2021/04/08 02:18:30;;;;;;;12.15;6.20;;;;;;;-0.95;100.00;96500.69;1031967;28;20058;-69
2021/04/08 02:19:00;;;;;;;12.97;7.37;;;;;;;-0.94;100.00;96504.91;1029143;28;20031;-68
2021/04/08 02:19:31;;;;;;;11.23;6.97;;;;;;;-0.94;100.00;96506.72;1025055;28;20088;-68
2021/04/08 02:20:10;;;;;;;14.40;7.53;;;;;;;-0.95;100.00;96502.50;1027679;28;20159;-68
2021/04/08 02:20:41;;;;;;;19.98;8.05;;;;;;;-0.98;100.00;96500.22;1024940;28;20448;-69
2021/04/08 02:21:11;;;;;;;12.97;7.40;;;;;;;-1.02;100.00;96504.22;1030260;28;20031;-68
2021/04/08 02:21:42;;;;;;;16.13;7.40;;;;;;;-1.02;100.00;96499.81;1028932;28;20421;-68
2021/04/08 02:22:12;;;;;;;15.43;7.77;;;;;;;-1.02;100.00;96502.44;1031836;28;20487;-68
2021/04/08 02:22:47;;;;;;;14.60;7.93;;;;;;;-0.99;100.00;96501.22;1031725;28;20019;-68
2021/04/08 02:23:20;;;;;;;11.90;6.90;;;;;;;-1.01;100.00;96505.84;1029026;28;20054;-68
2021/04/08 02:23:51;;;;;;;14.30;6.88;;;;;;;-0.94;100.00;96497.03;1031680;28;20030;-68
2021/04/08 02:24:21;;;;;;;13.63;7.20;;;;;;;-0.96;100.00;96501.69;1023637;28;20539;-68
2021/04/08 02:24:51;;;;;;;13.07;7.20;;;;;;;-0.95;100.00;96503.31;1027668;28;20081;-68
2021/04/08 02:25:23;;;;;;;13.33;7.23;;;;;;;-0.99;100.00;96501.22;1023568;29;20034;-69
2021/04/08 02:25:53;;;;;;;13.75;7.43;;;;;;;-0.96;100.00;96499.06;1027873;28;20023;-69
2021/04/08 02:26:24;;;;;;;13.43;7.53;;;;;;;-0.94;100.00;96504.09;1031748;28;20468;-68
2021/04/08 02:26:54;;;;;;;14.57;7.50;;;;;;;-0.93;100.00;96503.09;1027803;28;20023;-68
2021/04/08 02:27:25;;;;;;;14.03;7.67;;;;;;;-0.92;100.00;96508.19;1027779;28;20050;-68
2021/04/08 02:27:56;;;;;;;14.77;7.05;;;;;;;-0.93;100.00;96508.34;1023949;28;20027;-68
2021/04/08 02:28:27;;;;;;;11.90;7.10;;;;;;;-0.93;100.00;96503.91;1027866;28;20416;-68
2021/04/08 02:28:58;;;;;;;13.75;7.22;;;;;;;-0.89;100.00;96509.63;1027901;28;20015;-68
2021/04/08 02:29:29;;;;;;;14.18;7.53;;;;;;;-0.87;100.00;96510.22;1028234;28;20482;-68
2021/04/08 02:29:59;;;;;;;15.33;7.60;;;;;;;-0.85;100.00;96503.81;1031546;28;20026;-68
2021/04/08 02:30:30;;;;;;;15.70;6.87;;;;;;;-0.91;100.00;96507.19;1027864;28;20019;-68